Time;durP1;ratioP1;P1;durP2;ratioP2;P2;SDS_P1;SDS_P2;PMS_P1;PMS_P2;Temp;Humidity;BMP_temperature;BMP_pressure;BME280_temperature;BME280_humidity;BME280_pressure;Samples;Min_cycle;Max_cycle;Signal;HPM_P1;HPM_P2
2023/04/12 00:02:15;;;;;;;9.93;2.60;;;;;;;;;;5048643;28;20045;-80
2023/04/12 00:04:41;;;;;;;12.32;2.92;;;;;;;;;;5052010;28;20095;-80
2023/04/12 00:07:08;;;;;;;8.40;2.67;;;;;;;;;;5051390;28;20041;-80
2023/04/12 00:09:36;;;;;;;11.43;3.05;;;;;;;;;;5051568;28;20048;-80
2023/04/12 00:12:03;;;;;;;9.38;2.40;;;;;;;;;;5051482;28;20045;-80
2023/04/12 00:14:29;;;;;;;13.93;2.75;;;;;;;;;;5051854;28;20052;-80
2023/04/12 00:16:56;;;;;;;8.15;2.53;;;;;;;;;;5051569;28;20048;-80
2023/04/12 00:19:26;;;;;;;7.88;2.28;;;;;;;;;;5052066;28;20044;-80
2023/04/12 00:21:52;;;;;;;9.93;2.28;;;;;;;;;;5051715;28;20393;-80
2023/04/12 00:24:18;;;;;;;9.98;3.17;;;;;;;;;;5052551;28;20532;-79
2023/04/12 00:26:44;;;;;;;10.15;2.70;;;;;;;;;;5051476;28;20123;-80
2023/04/12 00:29:10;;;;;;;10.85;2.20;;;;;;;;;;5052287;28;20126;-80
2023/04/12 00:31:36;;;;;;;8.82;2.38;;;;;;;;;;5050992;28;20049;-80
2023/04/12 00:34:03;;;;;;;7.18;2.00;;;;;;;;;;5051967;28;20052;-80
2023/04/12 00:36:29;;;;;;;7.30;2.10;;;;;;;;;;5051090;28;20056;-79
2023/04/12 00:38:55;;;;;;;9.23;2.10;;;;;;;;;;5052500;28;20496;-80
2023/04/12 00:41:23;;;;;;;8.77;2.15;;;;;;;;;;5052270;28;20045;-80
2023/04/12 00:43:50;;;;;;;8.45;2.15;;;;;;;;;;5052270;28;20047;-80
2023/04/12 00:46:16;;;;;;;7.72;2.08;;;;;;;;;;5052087;28;20053;-80
2023/04/12 00:48:43;;;;;;;6.90;2.13;;;;;;;;;;5050920;28;20449;-80
2023/04/12 00:51:10;;;;;;;8.82;2.33;;;;;;;;;;5050486;28;20045;-80
2023/04/12 00:53:37;;;;;;;9.90;2.60;;;;;;;;;;5034714;28;20578;-80
2023/04/12 00:56:04;;;;;;;9.38;3.00;;;;;;;;;;5051050;28;20080;-81
2023/04/12 00:58:30;;;;;;;10.57;2.40;;;;;;;;;;5050941;28;20072;-80
2023/04/12 01:00:56;;;;;;;7.85;2.40;;;;;;;;;;5052118;28;20048;-80
2023/04/12 01:03:22;;;;;;;7.40;2.30;;;;;;;;;;5051593;28;20028;-80
2023/04/12 01:06:12;;;;;;;7.90;2.38;;;;;;;;;;5050968;28;20052;-80
2023/04/12 01:08:51;;;;;;;11.57;2.47;;;;;;;;;;5052199;28;20444;-80
2023/04/12 01:11:20;;;;;;;8.55;2.60;;;;;;;;;;5050643;28;20562;-81
2023/04/12 01:14:03;;;;;;;8.32;2.40;;;;;;;;;;5051915;28;20069;-80
2023/04/12 01:16:43;;;;;;;14.52;2.72;;;;;;;;;;5050283;28;20048;-80
2023/04/12 01:19:29;;;;;;;9.95;2.53;;;;;;;;;;5050198;28;20087;-80
2023/04/12 01:21:55;;;;;;;;;;;;;;;;;;5081118;28;20045;-80
2023/04/12 01:24:37;;;;;;;5.88;2.28;;;;;;;;;;5051533;28;19920;-80
2023/04/12 01:27:05;;;;;;;5.03;2.20;;;;;;;;;;5050977;28;20501;-80
2023/04/12 01:29:31;;;;;;;8.50;2.55;;;;;;;;;;5050286;28;20052;-81
2023/04/12 01:31:58;;;;;;;6.68;2.20;;;;;;;;;;5050516;28;20068;-80
2023/04/12 01:34:26;;;;;;;10.93;2.30;;;;;;;;;;5050033;28;20045;-80
2023/04/12 01:36:53;;;;;;;10.65;3.08;;;;;;;;;;5050472;28;20536;-80
2023/04/12 01:39:19;;;;;;;10.13;2.50;;;;;;;;;;5051507;28;20489;-81
2023/04/12 01:41:47;;;;;;;7.43;2.40;;;;;;;;;;5051577;28;20056;-80
2023/04/12 01:44:17;;;;;;;12.07;2.60;;;;;;;;;;5051622;28;20052;-80
2023/04/12 01:46:45;;;;;;;9.40;2.55;;;;;;;;;;5067464;28;20535;-80
2023/04/12 01:49:12;;;;;;;7.55;2.40;;;;;;;;;;5059017;28;20065;-81
2023/04/12 01:51:38;;;;;;;9.60;2.28;;;;;;;;;;5054280;28;20045;-80
2023/04/12 01:54:10;;;;;;;6.30;2.17;;;;;;;;;;5053134;28;20525;-80
2023/04/12 01:56:37;;;;;;;8.20;2.20;;;;;;;;;;5053920;28;20045;-81
2023/04/12 01:59:04;;;;;;;6.82;1.90;;;;;;;;;;5079479;28;20056;-81
2023/04/12 02:01:30;;;;;;;9.52;2.40;;;;;;;;;;5060306;28;20048;-80
2023/04/12 02:04:00;;;;;;;7.55;2.33;;;;;;;;;;5053447;28;20454;-80
2023/04/12 02:06:26;;;;;;;10.52;2.47;;;;;;;;;;5052367;28;20131;-80
2023/04/12 02:09:01;;;;;;;10.07;3.08;;;;;;;;;;5061905;28;20048;-80
2023/04/12 02:11:27;;;;;;;8.75;2.75;;;;;;;;;;5059015;28;20475;-80
2023/04/12 02:13:53;;;;;;;6.85;2.78;;;;;;;;;;5075087;28;20048;-80
2023/04/12 02:16:21;;;;;;;14.43;2.80;;;;;;;;;;5073344;28;20036;-80
2023/04/12 02:18:48;;;;;;;9.07;2.40;;;;;;;;;;5074013;28;20116;-80
2023/04/12 02:21:14;;;;;;;8.18;2.50;;;;;;;;;;5074869;28;20044;-80
2023/04/12 02:23:42;;;;;;;8.93;2.65;;;;;;;;;;5071245;28;20040;-80
2023/04/12 02:26:09;;;;;;;11.55;3.00;;;;;;;;;;5054030;28;20541;-80
2023/04/12 02:28:37;;;;;;;6.55;2.40;;;;;;;;;;5057655;28;20040;-80
2023/04/12 02:31:03;;;;;;;8.90;2.38;;;;;;;;;;5073735;28;20485;-80
2023/04/12 02:33:29;;;;;;;8.73;2.38;;;;;;;;;;5074234;28;20041;-80
2023/04/12 02:36:01;;;;;;;7.75;2.70;;;;;;;;;;5073427;28;20060;-80
2023/04/12 02:38:28;;;;;;;7.57;2.50;;;;;;;;;;5074093;28;20044;-80
2023/04/12 02:40:55;;;;;;;7.78;2.33;;;;;;;;;;5045469;28;20041;-80
2023/04/12 02:43:21;;;;;;;8.88;2.20;;;;;;;;;;5069695;28;20029;-80
2023/04/12 02:45:48;;;;;;;8.60;2.78;;;;;;;;;;5054824;28;20041;-80
2023/04/12 02:48:14;;;;;;;5.90;2.28;;;;;;;;;;5052992;28;20458;-79
2023/04/12 02:50:40;;;;;;;7.28;2.58;;;;;;;;;;5052791;28;20084;-80
2023/04/12 02:53:06;;;;;;;8.00;2.72;;;;;;;;;;5052913;28;20049;-80
2023/04/12 02:55:32;;;;;;;7.25;2.42;;;;;;;;;;5053958;28;20537;-80
2023/04/12 02:57:58;;;;;;;6.97;2.10;;;;;;;;;;5054347;28;20036;-80
2023/04/12 03:00:24;;;;;;;9.48;2.47;;;;;;;;;;5051882;28;20546;-80
2023/04/12 03:02:51;;;;;;;6.97;2.53;;;;;;;;;;5055437;28;20504;-80
2023/04/12 03:05:17;;;;;;;8.52;2.25;;;;;;;;;;5073180;28;20041;-80
2023/04/12 03:07:43;;;;;;;8.07;2.70;;;;;;;;;;5072399;28;20092;-80
2023/04/12 03:10:13;;;;;;;8.50;2.40;;;;;;;;;;5072920;28;20071;-79
2023/04/12 03:12:39;;;;;;;6.88;2.60;;;;;;;;;;5072319;28;20036;-80
2023/04/12 03:15:05;;;;;;;6.10;2.30;;;;;;;;;;5053005;28;20403;-79
2023/04/12 03:17:31;;;;;;;7.65;2.90;;;;;;;;;;5055096;28;20052;-79
2023/04/12 03:20:03;;;;;;;9.18;2.80;;;;;;;;;;5053025;28;20432;-80
2023/04/12 03:22:29;;;;;;;6.55;2.42;;;;;;;;;;5053275;28;20063;-80
2023/04/12 03:24:56;;;;;;;8.13;3.10;;;;;;;;;;5053885;28;20055;-80
2023/04/12 03:27:22;;;;;;;11.18;2.50;;;;;;;;;;5052501;28;20099;-79
2023/04/12 03:29:48;;;;;;;6.25;2.30;;;;;;;;;;5035523;28;20041;-80
2023/04/12 03:32:14;;;;;;;9.65;2.50;;;;;;;;;;5052568;28;20060;-80
2023/04/12 03:34:40;;;;;;;7.53;2.30;;;;;;;;;;5051910;28;20041;-80
2023/04/12 03:37:06;;;;;;;6.82;2.95;;;;;;;;;;5035588;28;20045;-80
2023/04/12 03:39:32;;;;;;;9.63;2.17;;;;;;;;;;5052093;28;20072;-80
2023/04/12 03:41:58;;;;;;;5.45;2.10;;;;;;;;;;5053540;28;20037;-80
2023/04/12 03:44:25;;;;;;;5.97;2.15;;;;;;;;;;5035521;28;20041;-80
2023/04/12 03:46:51;;;;;;;6.85;2.17;;;;;;;;;;5053090;28;20047;-80
2023/04/12 03:49:17;;;;;;;7.65;2.33;;;;;;;;;;5052849;28;20057;-80
2023/04/12 03:51:44;;;;;;;7.65;2.08;;;;;;;;;;5052799;28;20470;-79
2023/04/12 03:54:14;;;;;;;7.70;2.53;;;;;;;;;;5053057;28;20405;-80
2023/04/12 03:56:40;;;;;;;6.00;2.20;;;;;;;;;;5051633;28;20044;-80
2023/04/12 03:59:06;;;;;;;8.77;2.17;;;;;;;;;;5053215;28;20399;-80
2023/04/12 04:01:33;;;;;;;8.85;2.03;;;;;;;;;;5042282;28;20394;-80
2023/04/12 04:03:59;;;;;;;5.90;2.63;;;;;;;;;;5046127;28;20394;-80
2023/04/12 04:06:26;;;;;;;11.82;2.85;;;;;;;;;;5051800;28;20049;-80
2023/04/12 04:08:52;;;;;;;6.63;2.30;;;;;;;;;;5052153;28;20079;-80
2023/04/12 04:11:18;;;;;;;7.65;2.47;;;;;;;;;;5051411;28;20114;-80
2023/04/12 04:13:45;;;;;;;7.55;2.42;;;;;;;;;;5052751;28;20467;-80
2023/04/12 04:16:11;;;;;;;8.85;3.28;;;;;;;;;;5051868;28;20029;-80
2023/04/12 04:18:37;;;;;;;8.68;2.58;;;;;;;;;;5034555;28;20123;-80
2023/04/12 04:21:03;;;;;;;7.22;2.20;;;;;;;;;;5052802;28;20037;-80
2023/04/12 04:23:39;;;;;;;7.18;2.67;;;;;;;;;;5051510;28;20489;-80
2023/04/12 04:26:09;;;;;;;7.75;2.58;;;;;;;;;;5052554;28;20053;-81
2023/04/12 04:28:36;;;;;;;6.38;2.20;;;;;;;;;;5052188;28;20067;-81
2023/04/12 04:31:05;;;;;;;6.65;2.50;;;;;;;;;;5051469;28;20053;-80
2023/04/12 04:33:34;;;;;;;7.20;2.60;;;;;;;;;;5035277;28;20501;-81
2023/04/12 04:36:02;;;;;;;8.50;3.03;;;;;;;;;;5051270;28;20044;-81
2023/04/12 04:38:31;;;;;;;9.10;2.67;;;;;;;;;;5051113;28;20048;-80
2023/04/12 04:40:58;;;;;;;8.73;3.40;;;;;;;;;;5051399;28;20540;-81
2023/04/12 04:43:25;;;;;;;7.35;2.95;;;;;;;;;;5052602;28;20073;-80
2023/04/12 04:45:53;;;;;;;8.05;3.63;;;;;;;;;;5051733;28;20037;-81
2023/04/12 04:48:20;;;;;;;8.02;3.67;;;;;;;;;;5052284;28;20061;-81
2023/04/12 04:50:46;;;;;;;9.32;3.75;;;;;;;;;;5051912;28;20590;-81
2023/04/12 04:53:12;;;;;;;8.38;3.97;;;;;;;;;;5052163;28;20088;-81
2023/04/12 04:55:40;;;;;;;9.88;4.22;;;;;;;;;;5050452;28;20052;-81
2023/04/12 04:58:06;;;;;;;11.40;5.32;;;;;;;;;;5050998;28;20049;-81
2023/04/12 05:00:34;;;;;;;12.70;4.97;;;;;;;;;;5050371;28;20120;-81
2023/04/12 05:03:01;;;;;;;12.88;5.38;;;;;;;;;;5053773;28;20037;-81
2023/04/12 05:05:29;;;;;;;13.57;5.90;;;;;;;;;;5050975;28;20110;-82
2023/04/12 05:07:56;;;;;;;12.75;5.45;;;;;;;;;;5050710;28;20060;-81
2023/04/12 05:10:22;;;;;;;11.93;6.55;;;;;;;;;;5052008;28;20052;-81
2023/04/12 05:12:48;;;;;;;12.88;6.63;;;;;;;;;;5051638;28;20040;-81
2023/04/12 05:15:14;;;;;;;14.20;6.70;;;;;;;;;;5050579;28;20080;-82
2023/04/12 05:17:40;;;;;;;15.82;8.25;;;;;;;;;;5050418;28;20037;-82
2023/04/12 05:20:08;;;;;;;18.33;7.78;;;;;;;;;;5053805;28;20040;-81
2023/04/12 05:22:35;;;;;;;15.13;8.88;;;;;;;;;;5054783;28;20256;-81
2023/04/12 05:25:02;;;;;;;15.43;9.00;;;;;;;;;;5055549;28;20083;-81
2023/04/12 05:27:29;;;;;;;21.52;10.63;;;;;;;;;;5054726;28;20088;-81
2023/04/12 05:29:59;;;;;;;19.75;10.38;;;;;;;;;;5054749;28;20076;-81
2023/04/12 05:32:25;;;;;;;16.95;10.07;;;;;;;;;;5038214;28;20033;-80
2023/04/12 05:34:51;;;;;;;20.55;11.50;;;;;;;;;;5054319;28;20359;-82
2023/04/12 05:37:18;;;;;;;20.48;11.63;;;;;;;;;;5055963;28;20037;-82
2023/04/12 05:39:44;;;;;;;20.52;11.95;;;;;;;;;;5053881;28;20164;-82
2023/04/12 05:42:10;;;;;;;22.85;11.27;;;;;;;;;;5055183;28;20436;-81
2023/04/12 05:44:36;;;;;;;18.65;10.48;;;;;;;;;;5055536;28;20080;-82
2023/04/12 05:47:03;;;;;;;22.25;11.63;;;;;;;;;;5054261;28;20044;-82
2023/04/12 05:49:32;;;;;;;23.48;11.20;;;;;;;;;;5054245;28;20065;-82
2023/04/12 05:51:58;;;;;;;17.92;9.48;;;;;;;;;;5053787;28;20042;-82
2023/04/12 05:54:24;;;;;;;18.98;9.35;;;;;;;;;;5053880;28;20093;-81
2023/04/12 05:56:53;;;;;;;16.83;10.48;;;;;;;;;;5053542;28;20041;-81
2023/04/12 05:59:19;;;;;;;18.38;10.25;;;;;;;;;;5054184;28;20041;-81
2023/04/12 06:01:46;;;;;;;16.90;9.88;;;;;;;;;;5036716;28;20051;-81
2023/04/12 06:04:12;;;;;;;18.00;10.35;;;;;;;;;;5069311;28;20137;-81
2023/04/12 06:06:38;;;;;;;18.67;9.40;;;;;;;;;;5075230;28;20048;-81
2023/04/12 06:09:04;;;;;;;17.33;9.90;;;;;;;;;;5075013;28;20048;-81
2023/04/12 06:11:34;;;;;;;18.10;9.40;;;;;;;;;;5066940;28;20494;-81
2023/04/12 06:14:00;;;;;;;14.70;9.25;;;;;;;;;;5053451;28;20052;-82
2023/04/12 06:16:27;;;;;;;14.88;8.65;;;;;;;;;;5037139;28;20059;-82
2023/04/12 06:18:53;;;;;;;17.05;9.63;;;;;;;;;;5053431;28;20055;-82
2023/04/12 06:21:19;;;;;;;16.42;8.88;;;;;;;;;;5053789;28;20041;-82
2023/04/12 06:23:45;;;;;;;18.92;9.15;;;;;;;;;;5053911;28;20077;-82
2023/04/12 06:26:11;;;;;;;14.88;7.93;;;;;;;;;;5053160;28;20040;-82
2023/04/12 06:28:37;;;;;;;14.85;8.70;;;;;;;;;;5053546;28;20047;-82
2023/04/12 06:31:03;;;;;;;16.92;8.60;;;;;;;;;;5027805;28;20060;-82
2023/04/12 06:33:29;;;;;;;15.40;8.43;;;;;;;;;;5054884;28;20398;-82
2023/04/12 06:35:55;;;;;;;12.95;8.68;;;;;;;;;;5052883;28;20056;-82
2023/04/12 06:38:22;;;;;;;13.23;7.90;;;;;;;;;;5070347;28;20060;-82
2023/04/12 06:40:48;;;;;;;16.10;8.60;;;;;;;;;;5053449;28;20075;-82
2023/04/12 06:43:15;;;;;;;18.17;8.35;;;;;;;;;;5069377;28;20044;-82
2023/04/12 06:45:41;;;;;;;17.85;8.45;;;;;;;;;;5054708;28;20041;-82
2023/04/12 06:48:07;;;;;;;14.88;8.38;;;;;;;;;;5052686;28;20059;-82
2023/04/12 06:50:34;;;;;;;13.70;7.70;;;;;;;;;;5053324;28;20394;-82
2023/04/12 06:53:00;;;;;;;16.63;8.50;;;;;;;;;;5052872;28;20091;-82
2023/04/12 06:55:28;;;;;;;14.13;7.88;;;;;;;;;;5052790;28;20068;-82
2023/04/12 06:57:54;;;;;;;15.85;8.10;;;;;;;;;;5054027;28;20040;-82
2023/04/12 07:00:20;;;;;;;16.70;8.43;;;;;;;;;;5052936;28;20482;-83
2023/04/12 07:02:46;;;;;;;13.45;7.65;;;;;;;;;;5056950;28;20039;-82
2023/04/12 07:05:13;;;;;;;12.65;7.38;;;;;;;;;;5056196;28;20047;-82
2023/04/12 07:07:39;;;;;;;10.98;7.20;;;;;;;;;;5056337;28;20059;-82
2023/04/12 07:10:06;;;;;;;10.95;7.10;;;;;;;;;;5072635;28;20048;-82
2023/04/12 07:12:32;;;;;;;10.57;6.97;;;;;;;;;;5073956;28;20044;-82
2023/04/12 07:14:58;;;;;;;10.45;7.43;;;;;;;;;;5066760;28;20472;-82
2023/04/12 07:17:25;;;;;;;12.43;7.63;;;;;;;;;;5066095;28;20051;-82
2023/04/12 07:19:53;;;;;;;12.50;6.82;;;;;;;;;;5072635;28;20040;-82
2023/04/12 07:22:19;;;;;;;11.02;6.55;;;;;;;;;;5072242;28;20044;-81
2023/04/12 07:24:45;;;;;;;10.23;5.63;;;;;;;;;;5069805;28;20040;-82
2023/04/12 07:27:11;;;;;;;11.40;6.22;;;;;;;;;;5060641;28;20123;-82
2023/04/12 07:29:37;;;;;;;9.18;5.80;;;;;;;;;;5072465;28;20044;-81
2023/04/12 07:32:04;;;;;;;7.45;5.10;;;;;;;;;;5054547;28;20055;-82
2023/04/12 07:34:30;;;;;;;8.77;5.40;;;;;;;;;;5053494;28;20040;-81
2023/04/12 07:36:56;;;;;;;9.13;5.25;;;;;;;;;;5052265;28;20386;-82
2023/04/12 07:39:22;;;;;;;9.38;5.43;;;;;;;;;;5053179;28;20091;-82
2023/04/12 07:41:49;;;;;;;10.45;5.65;;;;;;;;;;5051456;28;20037;-82
2023/04/12 07:44:15;;;;;;;13.05;5.97;;;;;;;;;;5053016;28;20063;-82
2023/04/12 07:46:41;;;;;;;8.73;6.50;;;;;;;;;;5053209;28;20040;-82
2023/04/12 07:49:09;;;;;;;8.85;6.28;;;;;;;;;;5035006;28;20052;-82
2023/04/12 07:51:36;;;;;;;11.15;7.22;;;;;;;;;;5052171;28;20515;-82
2023/04/12 07:54:03;;;;;;;9.48;6.30;;;;;;;;;;5052010;28;20409;-82
2023/04/12 07:56:29;;;;;;;8.55;6.40;;;;;;;;;;5035031;28;20052;-82
2023/04/12 07:58:55;;;;;;;10.50;6.80;;;;;;;;;;5052215;28;20111;-82
2023/04/12 08:01:21;;;;;;;10.00;5.60;;;;;;;;;;5032350;28;20605;-82
2023/04/12 08:03:47;;;;;;;9.50;5.78;;;;;;;;;;5063881;28;20047;-82
2023/04/12 08:06:13;;;;;;;9.00;5.38;;;;;;;;;;5067058;28;20037;-82
2023/04/12 08:08:40;;;;;;;9.85;5.05;;;;;;;;;;5063288;28;20036;-82
2023/04/12 08:11:06;;;;;;;8.50;5.60;;;;;;;;;;5072273;28;20102;-82
2023/04/12 08:13:34;;;;;;;8.30;5.60;;;;;;;;;;5072743;28;20039;-82
2023/04/12 08:16:00;;;;;;;10.35;4.72;;;;;;;;;;5071240;28;20045;-82
2023/04/12 08:18:27;;;;;;;8.05;5.25;;;;;;;;;;5072573;28;20040;-82
2023/04/12 08:20:54;;;;;;;8.40;5.25;;;;;;;;;;5071563;28;20032;-82
2023/04/12 08:23:20;;;;;;;9.20;4.88;;;;;;;;;;5070919;28;20094;-82
2023/04/12 08:25:46;;;;;;;9.65;5.95;;;;;;;;;;5071666;28;20045;-82
2023/04/12 08:28:12;;;;;;;8.00;4.80;;;;;;;;;;5054079;28;20153;-82
2023/04/12 08:30:38;;;;;;;7.88;4.80;;;;;;;;;;5072585;28;20044;-82
2023/04/12 08:33:05;;;;;;;6.88;4.72;;;;;;;;;;5072471;28;20040;-82
2023/04/12 08:35:31;;;;;;;9.57;4.97;;;;;;;;;;5072312;28;20094;-82
2023/04/12 08:37:59;;;;;;;7.95;5.03;;;;;;;;;;5071174;28;20044;-82
2023/04/12 08:40:25;;;;;;;9.00;5.05;;;;;;;;;;5070819;28;20440;-82
2023/04/12 08:42:52;;;;;;;7.38;5.35;;;;;;;;;;5071092;28;20047;-82
2023/04/12 08:45:18;;;;;;;8.40;5.18;;;;;;;;;;5072101;28;20033;-82
2023/04/12 08:47:45;;;;;;;8.20;4.90;;;;;;;;;;5071028;28;20115;-82
2023/04/12 08:50:12;;;;;;;11.02;5.57;;;;;;;;;;5070609;28;20115;-82
2023/04/12 08:52:39;;;;;;;8.57;5.10;;;;;;;;;;5064287;28;20584;-82
2023/04/12 08:55:06;;;;;;;9.30;5.35;;;;;;;;;;5052238;28;20044;-82
2023/04/12 08:57:33;;;;;;;7.88;5.40;;;;;;;;;;5051853;28;20167;-82
2023/04/12 09:00:02;;;;;;;7.57;5.00;;;;;;;;;;5052130;28;20045;-82
2023/04/12 09:02:29;;;;;;;8.15;4.82;;;;;;;;;;5049094;28;20084;-82
2023/04/12 09:04:55;;;;;;;9.40;5.07;;;;;;;;;;5071047;28;20036;-81
2023/04/12 09:07:29;;;;;;;8.60;5.07;;;;;;;;;;5071744;28;20120;-83
2023/04/12 09:09:56;;;;;;;8.63;5.20;;;;;;;;;;5045584;28;20544;-82
2023/04/12 09:12:26;;;;;;;9.82;5.10;;;;;;;;;;5071858;28;20039;-81
2023/04/12 09:15:12;;;;;;;9.98;4.85;;;;;;;;;;5054126;28;20044;-82
2023/04/12 09:17:39;;;;;;;8.05;4.28;;;;;;;;;;5070559;28;20040;-81
2023/04/12 09:20:11;;;;;;;9.98;3.92;;;;;;;;;;5071182;28;20037;-82
2023/04/12 09:22:43;;;;;;;12.27;4.95;;;;;;;;;;5104712;28;20188;-82
2023/04/12 09:25:09;;;;;;;12.52;4.95;;;;;;;;;;5071813;28;20439;-81
2023/04/12 09:27:51;;;;;;;16.63;5.82;;;;;;;;;;5055340;28;20040;-81
2023/04/12 09:30:18;;;;;;;13.85;6.32;;;;;;;;;;5071924;28;20090;-81
2023/04/12 09:32:44;;;;;;;16.40;6.82;;;;;;;;;;5071629;28;20098;-81
2023/04/12 09:35:10;;;;;;;14.63;6.25;;;;;;;;;;5071212;28;20039;-81
2023/04/12 09:37:36;;;;;;;16.42;6.50;;;;;;;;;;5070539;28;20040;-82
2023/04/12 09:40:06;;;;;;;11.68;4.68;;;;;;;;;;5071028;28;20044;-83
2023/04/12 09:42:33;;;;;;;14.57;4.78;;;;;;;;;;5070675;28;20481;-81
2023/04/12 09:45:00;;;;;;;15.07;5.30;;;;;;;;;;5052872;28;20425;-82
2023/04/12 09:47:39;;;;;;;14.00;3.60;;;;;;;;;;5058956;28;20385;-82
2023/04/12 09:50:08;;;;;;;11.40;2.88;;;;;;;;;;5070434;28;20057;-82
2023/04/12 09:52:36;;;;;;;8.27;2.53;;;;;;;;;;5070189;28;20059;-83
2023/04/12 09:55:02;;;;;;;13.75;2.63;;;;;;;;;;5052747;28;20083;-82
2023/04/12 09:57:29;;;;;;;12.00;2.88;;;;;;;;;;5049727;28;20501;-82
2023/04/12 09:59:56;;;;;;;11.50;2.65;;;;;;;;;;5051670;28;20044;-82
2023/04/12 10:02:26;;;;;;;11.85;2.50;;;;;;;;;;5048911;28;20059;-81
2023/04/12 10:04:52;;;;;;;11.88;2.90;;;;;;;;;;5071881;28;20048;-81
2023/04/12 10:07:19;;;;;;;11.13;2.22;;;;;;;;;;5074623;28;20366;-82
2023/04/12 10:09:46;;;;;;;13.50;2.45;;;;;;;;;;5061230;28;20054;-81
2023/04/12 10:12:12;;;;;;;12.50;2.58;;;;;;;;;;5074058;28;20051;-82
2023/04/12 10:14:38;;;;;;;16.88;2.90;;;;;;;;;;5073612;28;20481;-81
2023/04/12 10:17:04;;;;;;;13.75;2.55;;;;;;;;;;5055527;28;20037;-82
2023/04/12 10:19:32;;;;;;;12.77;2.85;;;;;;;;;;5054825;28;20033;-82
2023/04/12 10:21:58;;;;;;;14.90;2.97;;;;;;;;;;5053666;28;20052;-81
2023/04/12 10:24:25;;;;;;;10.90;2.55;;;;;;;;;;5053476;28;20041;-81
2023/04/12 10:26:54;;;;;;;14.75;2.55;;;;;;;;;;5054021;28;20045;-81
2023/04/12 10:29:28;;;;;;;17.95;2.72;;;;;;;;;;5055160;28;20504;-81
2023/04/12 10:31:58;;;;;;;14.65;2.97;;;;;;;;;;5073774;28;20041;-81
2023/04/12 10:34:28;;;;;;;14.02;2.78;;;;;;;;;;5054525;28;20041;-81
2023/04/12 10:36:58;;;;;;;13.15;2.30;;;;;;;;;;5054518;28;20033;-81
2023/04/12 10:39:35;;;;;;;14.20;2.72;;;;;;;;;;5053129;28;20040;-81
2023/04/12 10:42:14;;;;;;;13.98;2.40;;;;;;;;;;5053572;28;20095;-81
2023/04/12 10:44:40;;;;;;;13.65;2.50;;;;;;;;;;5053257;28;20553;-81
2023/04/12 10:47:06;;;;;;;12.63;2.55;;;;;;;;;;5053344;28;20501;-81
2023/04/12 10:49:33;;;;;;;13.10;2.72;;;;;;;;;;5052629;28;20501;-82
2023/04/12 10:52:09;;;;;;;11.18;2.50;;;;;;;;;;5053183;28;20080;-82
2023/04/12 10:54:36;;;;;;;14.80;2.63;;;;;;;;;;5030712;28;20045;-82
2023/04/12 10:57:06;;;;;;;13.68;2.50;;;;;;;;;;5034254;28;20045;-81
2023/04/12 10:59:51;;;;;;;13.23;2.20;;;;;;;;;;5053979;28;20076;-81
2023/04/12 11:02:17;;;;;;;16.15;2.80;;;;;;;;;;5051886;28;20513;-81
2023/04/12 11:05:02;;;;;;;16.27;2.50;;;;;;;;;;5072519;28;20072;-81
2023/04/12 11:07:41;;;;;;;11.88;2.30;;;;;;;;;;5073851;28;20036;-81
2023/04/12 11:10:18;;;;;;;14.23;2.20;;;;;;;;;;5074299;28;20481;-81
2023/04/12 11:12:49;;;;;;;14.65;2.50;;;;;;;;;;5072557;28;20044;-81
2023/04/12 11:15:15;;;;;;;15.70;2.45;;;;;;;;;;5054739;28;20212;-81
2023/04/12 11:17:41;;;;;;;13.20;2.60;;;;;;;;;;5053645;28;20037;-81
2023/04/12 11:20:12;;;;;;;16.30;2.72;;;;;;;;;;5052868;28;20041;-81
2023/04/12 11:22:39;;;;;;;9.57;2.17;;;;;;;;;;5053391;28;20041;-81
2023/04/12 11:25:06;;;;;;;12.98;2.25;;;;;;;;;;5036302;28;20049;-81
2023/04/12 11:27:33;;;;;;;12.63;2.00;;;;;;;;;;5052357;28;20048;-81
2023/04/12 11:30:00;;;;;;;12.52;2.53;;;;;;;;;;5069516;28;20052;-81
2023/04/12 11:32:28;;;;;;;12.63;2.22;;;;;;;;;;5053734;28;20076;-81
2023/04/12 11:34:55;;;;;;;9.10;1.70;;;;;;;;;;5053662;28;20041;-81
2023/04/12 11:37:22;;;;;;;7.43;1.42;;;;;;;;;;5053588;28;20128;-81
2023/04/12 11:39:51;;;;;;;10.98;1.88;;;;;;;;;;5035296;28;20119;-81
2023/04/12 11:42:19;;;;;;;10.88;1.77;;;;;;;;;;5052659;28;20371;-81
2023/04/12 11:44:47;;;;;;;12.15;2.22;;;;;;;;;;5051988;28;20037;-81
2023/04/12 11:47:17;;;;;;;11.07;1.90;;;;;;;;;;5052325;28;20087;-81
2023/04/12 11:49:44;;;;;;;12.57;2.10;;;;;;;;;;5051392;28;20061;-81
2023/04/12 11:52:11;;;;;;;11.70;2.10;;;;;;;;;;5035496;28;20056;-81
2023/04/12 11:54:37;;;;;;;15.00;2.13;;;;;;;;;;5051670;28;20076;-81
2023/04/12 11:57:03;;;;;;;12.35;3.03;;;;;;;;;;5052128;28;20151;-81
2023/04/12 11:59:33;;;;;;;13.38;2.53;;;;;;;;;;5053155;28;20549;-81
2023/04/12 12:02:00;;;;;;;11.23;2.58;;;;;;;;;;5050534;28;20076;-81
2023/04/12 12:04:27;;;;;;;13.45;2.03;;;;;;;;;;5069065;28;20044;-81
2023/04/12 12:06:55;;;;;;;12.15;2.00;;;;;;;;;;5071835;28;20809;-81
2023/04/12 12:09:21;;;;;;;9.27;1.83;;;;;;;;;;5071597;28;20045;-81
2023/04/12 12:11:47;;;;;;;10.85;2.05;;;;;;;;;;5071503;28;20036;-81
2023/04/12 12:14:17;;;;;;;9.77;1.83;;;;;;;;;;5071706;28;20044;-81
2023/04/12 12:16:52;;;;;;;9.88;2.08;;;;;;;;;;5071297;28;20123;-81
2023/04/12 12:19:26;;;;;;;8.45;1.55;;;;;;;;;;5071639;28;20063;-81
2023/04/12 12:21:52;;;;;;;10.00;2.33;;;;;;;;;;5072897;28;20059;-81
2023/04/12 12:24:18;;;;;;;9.07;1.70;;;;;;;;;;5071652;28;20040;-81
2023/04/12 12:26:44;;;;;;;8.88;2.03;;;;;;;;;;5071210;28;20044;-81
2023/04/12 12:29:16;;;;;;;9.00;1.58;;;;;;;;;;5072300;28;20099;-81
2023/04/12 12:31:46;;;;;;;9.90;1.90;;;;;;;;;;5054325;28;20051;-81
2023/04/12 12:34:13;;;;;;;8.75;1.73;;;;;;;;;;5054615;28;20044;-81
2023/04/12 12:36:39;;;;;;;8.88;1.73;;;;;;;;;;5070917;28;20516;-80
2023/04/12 12:39:09;;;;;;;7.35;1.55;;;;;;;;;;5072793;28;20032;-81
2023/04/12 12:41:36;;;;;;;9.35;1.92;;;;;;;;;;5071131;28;20052;-82
2023/04/12 12:44:02;;;;;;;8.73;1.98;;;;;;;;;;5072442;28;20028;-81
2023/04/12 12:46:28;;;;;;;9.23;1.48;;;;;;;;;;5072611;28;20118;-81
2023/04/12 12:48:54;;;;;;;9.68;2.00;;;;;;;;;;5063945;28;20182;-81
2023/04/12 12:51:21;;;;;;;9.52;1.75;;;;;;;;;;5051330;28;20107;-81
2023/04/12 12:53:47;;;;;;;9.98;1.80;;;;;;;;;;5051267;28;20429;-81
2023/04/12 12:56:14;;;;;;;13.00;2.30;;;;;;;;;;5052269;28;20072;-81
2023/04/12 12:58:41;;;;;;;13.52;1.90;;;;;;;;;;5051620;28;20374;-81
2023/04/12 13:01:07;;;;;;;9.60;1.75;;;;;;;;;;5048651;28;20036;-81
2023/04/12 13:03:33;;;;;;;11.85;2.63;;;;;;;;;;5061566;28;20082;-80
2023/04/12 13:05:59;;;;;;;8.38;1.80;;;;;;;;;;5072535;28;20142;-80
2023/04/12 13:08:26;;;;;;;12.88;2.13;;;;;;;;;;5072925;28;20400;-81
2023/04/12 13:10:54;;;;;;;12.85;2.03;;;;;;;;;;5072082;28;20091;-82
2023/04/12 13:13:20;;;;;;;11.90;1.85;;;;;;;;;;5055520;28;20032;-81
2023/04/12 13:15:46;;;;;;;10.93;2.38;;;;;;;;;;5072168;28;20148;-81
2023/04/12 13:18:16;;;;;;;10.02;1.70;;;;;;;;;;5055661;28;20392;-80
2023/04/12 13:20:42;;;;;;;10.77;2.05;;;;;;;;;;5072863;28;20102;-81
2023/04/12 13:23:09;;;;;;;10.00;1.85;;;;;;;;;;5072075;28;20033;-81
2023/04/12 13:25:35;;;;;;;14.65;2.00;;;;;;;;;;5071469;28;20044;-81
2023/04/12 13:28:01;;;;;;;11.15;1.63;;;;;;;;;;5053911;28;20386;-81
2023/04/12 13:30:27;;;;;;;11.05;1.73;;;;;;;;;;5070708;28;20038;-81
2023/04/12 13:32:54;;;;;;;14.32;2.13;;;;;;;;;;5070475;28;20040;-81
2023/04/12 13:35:20;;;;;;;8.75;1.50;;;;;;;;;;5064487;28;20044;-81
2023/04/12 13:37:46;;;;;;;8.80;1.70;;;;;;;;;;5062277;28;20081;-81
2023/04/12 13:40:12;;;;;;;9.20;2.03;;;;;;;;;;5067233;28;20516;-82
2023/04/12 13:42:39;;;;;;;8.05;1.80;;;;;;;;;;5065663;28;20051;-81
2023/04/12 13:45:05;;;;;;;11.30;1.83;;;;;;;;;;5060201;28;20566;-81
2023/04/12 13:47:32;;;;;;;6.93;1.75;;;;;;;;;;5075930;28;20055;-82
2023/04/12 13:50:00;;;;;;;8.20;1.73;;;;;;;;;;5073701;28;20056;-81
2023/04/12 13:52:26;;;;;;;7.63;1.70;;;;;;;;;;5074552;28;20543;-81
2023/04/12 13:54:52;;;;;;;8.10;1.60;;;;;;;;;;5073989;28;20044;-81
2023/04/12 13:57:18;;;;;;;11.25;1.90;;;;;;;;;;5075360;28;20497;-81
2023/04/12 13:59:44;;;;;;;8.95;1.65;;;;;;;;;;5057850;28;20515;-81
2023/04/12 14:02:10;;;;;;;12.18;1.55;;;;;;;;;;5058801;28;20151;-81
2023/04/12 14:04:36;;;;;;;11.32;2.10;;;;;;;;;;5060120;28;20072;-81
2023/04/12 14:07:02;;;;;;;9.13;1.95;;;;;;;;;;5073804;28;20048;-80
2023/04/12 14:09:29;;;;;;;12.68;2.15;;;;;;;;;;5075180;28;20090;-82
2023/04/12 14:11:56;;;;;;;10.90;1.50;;;;;;;;;;5073578;28;20048;-81
2023/04/12 14:14:26;;;;;;;10.88;3.22;;;;;;;;;;5074162;28;20040;-81
2023/04/12 14:16:55;;;;;;;9.95;1.73;;;;;;;;;;5056876;28;20080;-81
2023/04/12 14:19:21;;;;;;;8.75;1.83;;;;;;;;;;5073998;28;20455;-81
2023/04/12 14:21:48;;;;;;;8.95;1.70;;;;;;;;;;5073881;28;20051;-81
2023/04/12 14:24:17;;;;;;;9.43;2.05;;;;;;;;;;5073642;28;20131;-81
2023/04/12 14:26:44;;;;;;;8.57;1.38;;;;;;;;;;5059499;28;20104;-81
2023/04/12 14:29:10;;;;;;;5.90;1.00;;;;;;;;;;5073478;28;20105;-81
2023/04/12 14:31:36;;;;;;;6.35;0.98;;;;;;;;;;5073504;28;20040;-81
2023/04/12 14:34:07;;;;;;;6.38;1.20;;;;;;;;;;5073349;28;20044;-81
2023/04/12 14:36:33;;;;;;;8.15;1.30;;;;;;;;;;5073456;28;20048;-81
2023/04/12 14:39:02;;;;;;;6.78;1.20;;;;;;;;;;5073233;28;20090;-81